Time;durP1;ratioP1;P1;durP2;ratioP2;P2;SDS_P1;SDS_P2;PMS_P1;PMS_P2;Temp;Humidity;BMP_temperature;BMP_pressure;BME280_temperature;BME280_humidity;BME280_pressure;Samples;Min_cycle;Max_cycle;Signal;HPM_P1;HPM_P2
2024/02/24 00:01:21;;;;;;;49.40;24.10;;;8.50;99.90;;;;;;5059310;28;20209;-81
2024/02/24 00:04:08;;;;;;;51.03;23.73;;;8.50;99.90;;;;;;5073148;28;20548;-82
2024/02/24 00:06:56;;;;;;;52.63;24.27;;;8.50;99.90;;;;;;5072077;28;20293;-82
2024/02/24 00:09:43;;;;;;;53.87;25.80;;;8.50;99.90;;;;;;5072771;28;20198;-82
2024/02/24 00:12:31;;;;;;;54.70;25.33;;;8.40;99.90;;;;;;5071889;28;20609;-81
2024/02/24 00:15:18;;;;;;;59.97;25.20;;;8.50;99.90;;;;;;5072718;28;20201;-81
2024/02/24 00:18:06;;;;;;;50.53;23.63;;;8.50;99.90;;;;;;5057261;28;20217;-82
2024/02/24 00:20:53;;;;;;;53.03;24.37;;;8.50;99.90;;;;;;5072503;28;20196;-81
2024/02/24 00:23:40;;;;;;;51.53;24.10;;;8.40;99.90;;;;;;5072017;28;20187;-81
2024/02/24 00:26:28;;;;;;;51.43;25.93;;;8.30;99.90;;;;;;5072520;28;20329;-81
2024/02/24 00:29:15;;;;;;;49.47;25.83;;;8.30;99.90;;;;;;5072290;28;20193;-81
2024/02/24 00:32:02;;;;;;;49.33;25.60;;;8.30;99.90;;;;;;5071141;28;20213;-81
2024/02/24 00:34:50;;;;;;;49.30;26.30;;;8.30;99.90;;;;;;5071729;28;20667;-81
2024/02/24 00:37:37;;;;;;;45.80;25.17;;;8.30;99.90;;;;;;5056893;28;20238;-82
2024/02/24 00:40:25;;;;;;;48.50;25.90;;;8.30;99.90;;;;;;5072785;28;20565;-82
2024/02/24 00:43:12;;;;;;;48.40;26.57;;;8.30;99.90;;;;;;5071233;28;20236;-82
2024/02/24 00:46:00;;;;;;;47.50;26.47;;;8.30;99.90;;;;;;5070909;28;20247;-82
2024/02/24 00:48:47;;;;;;;46.40;26.40;;;8.30;99.90;;;;;;5072586;28;20197;-82
2024/02/24 00:51:35;;;;;;;46.47;26.53;;;8.30;99.90;;;;;;5057025;28;20201;-81
2024/02/24 00:54:22;;;;;;;46.07;25.67;;;8.20;99.90;;;;;;5072349;28;20194;-82
2024/02/24 00:57:10;;;;;;;44.60;24.90;;;8.30;99.90;;;;;;5057216;28;20208;-82
2024/02/24 00:59:57;;;;;;;44.07;24.90;;;8.30;99.90;;;;;;5057233;28;20777;-82
2024/02/24 01:02:45;;;;;;;44.67;24.40;;;8.20;99.90;;;;;;5056873;28;20690;-82
2024/02/24 01:05:33;;;;;;;42.77;23.73;;;8.20;99.90;;;;;;5071833;28;20195;-82
2024/02/24 01:08:20;;;;;;;40.27;23.60;;;8.20;99.90;;;;;;5070904;28;20244;-82
2024/02/24 01:11:09;;;;;;;40.83;23.70;;;8.20;99.90;;;;;;5071651;28;20194;-82
2024/02/24 01:13:58;;;;;;;43.17;23.60;;;8.10;99.90;;;;;;5071333;28;20255;-81
2024/02/24 01:16:46;;;;;;;38.80;23.23;;;8.10;99.90;;;;;;5055762;28;20302;-82
2024/02/24 01:19:33;;;;;;;40.43;23.10;;;8.10;99.90;;;;;;5071383;28;20204;-82
2024/02/24 01:22:21;;;;;;;37.53;21.63;;;8.10;99.90;;;;;;5056657;28;20205;-82
2024/02/24 01:25:08;;;;;;;39.77;21.77;;;8.10;99.90;;;;;;5056575;28;20250;-82
2024/02/24 01:27:56;;;;;;;37.17;21.60;;;8.10;99.90;;;;;;5057634;28;20222;-82
2024/02/24 01:30:43;;;;;;;37.67;21.73;;;8.00;99.90;;;;;;5056449;28;20198;-82
2024/02/24 01:33:31;;;;;;;35.27;20.80;;;8.00;99.90;;;;;;5056312;28;20215;-82
2024/02/24 01:36:18;;;;;;;36.17;20.47;;;8.00;99.90;;;;;;5055669;28;20347;-82
2024/02/24 01:39:05;;;;;;;35.87;20.47;;;8.00;99.90;;;;;;5072256;28;20199;-82
2024/02/24 01:41:53;;;;;;;34.93;19.70;;;7.90;99.90;;;;;;5071422;28;20197;-83
2024/02/24 01:44:40;;;;;;;33.30;19.37;;;8.00;99.90;;;;;;5071007;28;20210;-83
2024/02/24 01:47:28;;;;;;;30.43;18.33;;;8.00;99.90;;;;;;5056766;28;20299;-83
2024/02/24 01:50:16;;;;;;;29.00;18.30;;;8.00;99.90;;;;;;5071186;28;20194;-83
2024/02/24 01:53:04;;;;;;;30.67;17.43;;;8.00;99.90;;;;;;5043287;28;20193;-82
2024/02/24 01:55:53;;;;;;;29.43;17.57;;;8.00;99.90;;;;;;5070924;28;20569;-83
2024/02/24 01:58:42;;;;;;;30.43;17.87;;;8.00;99.90;;;;;;5071498;28;20224;-82
2024/02/24 02:01:30;;;;;;;23.57;15.17;;;7.90;99.90;;;;;;5070776;28;20578;-81
2024/02/24 02:04:17;;;;;;;26.27;15.90;;;7.90;99.90;;;;;;5069722;28;20196;-82
2024/02/24 02:07:05;;;;;;;28.50;16.63;;;7.90;99.90;;;;;;5070384;28;20276;-82
2024/02/24 02:09:54;;;;;;;28.80;17.67;;;7.90;99.90;;;;;;5069675;28;20210;-82
2024/02/24 02:12:41;;;;;;;26.77;15.97;;;7.90;99.90;;;;;;5070800;28;20275;-83
2024/02/24 02:15:29;;;;;;;26.30;16.73;;;8.00;99.90;;;;;;5071919;28;20221;-83
2024/02/24 02:18:17;;;;;;;24.63;15.83;;;7.90;99.90;;;;;;5070741;28;20228;-82
2024/02/24 02:21:07;;;;;;;29.80;16.33;;;8.00;99.90;;;;;;5055876;28;20250;-82
2024/02/24 02:23:54;;;;;;;25.90;16.23;;;8.00;99.90;;;;;;5070387;28;20208;-82
2024/02/24 02:26:41;;;;;;;28.73;16.67;;;7.90;99.90;;;;;;5070586;28;20726;-82
2024/02/24 02:29:29;;;;;;;28.10;16.73;;;7.80;99.90;;;;;;5070701;28;20278;-82
2024/02/24 02:32:16;;;;;;;26.63;16.50;;;7.90;99.90;;;;;;5070699;28;20218;-82
2024/02/24 02:35:05;;;;;;;25.93;15.83;;;7.90;99.90;;;;;;5056276;28;20369;-82
2024/02/24 02:37:52;;;;;;;28.20;17.60;;;7.90;99.90;;;;;;5069861;28;20190;-82
2024/02/24 02:40:40;;;;;;;26.63;16.70;;;7.90;99.90;;;;;;5069519;28;20246;-82
2024/02/24 02:43:27;;;;;;;26.50;16.03;;;7.80;99.90;;;;;;5070207;28;20196;-82
2024/02/24 02:46:15;;;;;;;25.53;16.67;;;7.80;99.90;;;;;;5071306;28;20204;-82
2024/02/24 02:49:02;;;;;;;26.83;16.53;;;7.80;99.90;;;;;;5073423;28;20595;-82
2024/02/24 02:51:50;;;;;;;28.90;17.10;;;7.80;99.90;;;;;;5074589;28;20318;-82
2024/02/24 02:54:37;;;;;;;26.30;17.40;;;7.80;99.90;;;;;;5074155;28;20196;-82
2024/02/24 02:57:25;;;;;;;26.73;16.80;;;7.80;99.90;;;;;;5074843;28;20473;-82
2024/02/24 03:00:13;;;;;;;25.20;15.97;;;7.70;99.90;;;;;;5073605;28;20559;-82
2024/02/24 03:03:01;;;;;;;28.87;16.73;;;7.70;99.90;;;;;;5074066;28;20220;-82
2024/02/24 03:05:49;;;;;;;25.80;16.43;;;7.70;99.90;;;;;;5074092;28;20647;-82
2024/02/24 03:08:36;;;;;;;26.93;16.93;;;7.70;99.90;;;;;;5073904;28;20624;-82
2024/02/24 03:11:24;;;;;;;30.17;17.60;;;7.80;99.90;;;;;;5075619;28;20207;-82
2024/02/24 03:14:12;;;;;;;28.80;17.67;;;7.80;99.90;;;;;;5073215;28;20559;-82
2024/02/24 03:16:59;;;;;;;25.37;17.30;;;7.80;99.90;;;;;;5072618;28;20213;-82
2024/02/24 03:19:47;;;;;;;28.23;17.20;;;7.70;99.90;;;;;;5073681;28;20194;-80
2024/02/24 03:22:34;;;;;;;27.70;17.07;;;7.80;99.90;;;;;;5059746;28;20284;-82
2024/02/24 03:25:22;;;;;;;28.60;17.90;;;7.70;99.90;;;;;;5057791;28;20197;-82
2024/02/24 03:28:09;;;;;;;26.70;17.33;;;7.70;99.90;;;;;;5073780;28;20411;-82
2024/02/24 03:30:56;;;;;;;27.40;17.27;;;7.70;99.90;;;;;;5073556;28;20197;-82
2024/02/24 03:33:44;;;;;;;28.23;17.10;;;7.60;99.90;;;;;;5073092;28;20565;-82
2024/02/24 03:36:31;;;;;;;28.33;17.33;;;7.60;99.90;;;;;;5058071;28;20225;-81
2024/02/24 03:39:19;;;;;;;27.63;17.00;;;7.60;99.90;;;;;;5058626;28;20295;-82
2024/02/24 03:42:07;;;;;;;26.87;17.20;;;7.70;99.90;;;;;;5058491;28;20192;-82
2024/02/24 03:44:54;;;;;;;27.93;17.03;;;7.70;99.90;;;;;;5073553;28;20270;-81
2024/02/24 03:47:42;;;;;;;27.93;16.70;;;7.70;99.90;;;;;;5073168;28;20225;-82
2024/02/24 03:50:30;;;;;;;26.17;17.40;;;7.70;99.90;;;;;;5073376;28;20196;-82
2024/02/24 03:53:17;;;;;;;26.37;17.00;;;7.70;99.90;;;;;;5073086;28;20635;-81
2024/02/24 03:56:05;;;;;;;29.03;17.30;;;7.70;99.90;;;;;;5072041;28;20204;-81
2024/02/24 03:58:52;;;;;;;28.40;17.23;;;7.70;99.90;;;;;;5071419;28;20733;-81
2024/02/24 04:01:40;;;;;;;24.30;16.33;;;7.80;99.90;;;;;;5073256;28;20219;-81
2024/02/24 04:04:28;;;;;;;26.20;16.47;;;7.80;99.90;;;;;;5058317;28;20625;-81
2024/02/24 04:07:15;;;;;;;24.90;16.13;;;7.80;99.90;;;;;;5072888;28;20687;-81
2024/02/24 04:10:03;;;;;;;26.47;16.17;;;7.80;99.90;;;;;;5071955;28;20492;-81
2024/02/24 04:12:51;;;;;;;26.30;15.20;;;7.80;99.90;;;;;;5072481;28;20192;-81
2024/02/24 04:15:44;;;;;;;24.57;15.50;;;7.80;99.90;;;;;;5072703;28;20193;-82
2024/02/24 04:18:32;;;;;;;24.67;16.07;;;7.80;99.90;;;;;;5072801;28;20276;-82
2024/02/24 04:21:22;;;;;;;23.10;14.77;;;7.80;99.90;;;;;;5072843;28;20566;-82
2024/02/24 04:24:10;;;;;;;23.20;15.07;;;7.80;99.90;;;;;;5071393;28;20356;-82
2024/02/24 04:26:57;;;;;;;24.23;15.23;;;7.80;99.90;;;;;;5072408;28;20553;-82
2024/02/24 04:29:45;;;;;;;25.80;14.60;;;7.80;99.90;;;;;;5072498;28;20308;-82
2024/02/24 04:32:32;;;;;;;23.60;14.30;;;7.70;99.90;;;;;;5071504;28;20212;-82
2024/02/24 04:35:20;;;;;;;26.07;15.10;;;7.70;99.90;;;;;;5072266;28;20225;-81
2024/02/24 04:38:07;;;;;;;26.70;15.03;;;7.70;99.90;;;;;;5072219;28;20207;-81
2024/02/24 04:40:54;;;;;;;23.37;14.17;;;7.70;99.90;;;;;;5071084;28;20195;-81
2024/02/24 04:43:42;;;;;;;26.90;15.70;;;7.60;99.90;;;;;;5071331;28;20600;-81
2024/02/24 04:46:29;;;;;;;26.77;15.57;;;7.60;99.90;;;;;;5060246;28;20220;-79
2024/02/24 04:49:17;;;;;;;23.77;14.90;;;7.70;99.90;;;;;;5075392;28;20259;-79
2024/02/24 04:52:05;;;;;;;25.27;15.37;;;7.60;99.90;;;;;;5073791;28;20194;-78
2024/02/24 04:54:52;;;;;;;25.73;15.77;;;7.60;99.90;;;;;;5060215;28;20542;-79
2024/02/24 04:57:39;;;;;;;22.50;14.53;;;7.60;99.90;;;;;;5073957;28;20196;-80
2024/02/24 05:00:27;;;;;;;25.03;14.70;;;7.60;99.90;;;;;;5074169;28;20317;-79
2024/02/24 05:03:15;;;;;;;24.30;14.60;;;7.60;99.90;;;;;;5071294;28;20710;-80
2024/02/24 05:06:03;;;;;;;24.67;14.87;;;7.60;99.90;;;;;;5057073;28;20266;-79
2024/02/24 05:08:50;;;;;;;24.13;15.13;;;7.60;99.90;;;;;;5071556;28;20229;-79
2024/02/24 05:11:38;;;;;;;23.50;15.53;;;7.60;99.90;;;;;;5071331;28;20217;-79
2024/02/24 05:14:26;;;;;;;24.70;15.03;;;7.60;99.90;;;;;;5071661;28;20266;-80
2024/02/24 05:17:14;;;;;;;25.43;15.53;;;7.50;99.90;;;;;;5071114;28;20312;-79
2024/02/24 05:20:03;;;;;;;24.13;15.90;;;7.50;99.90;;;;;;5070502;28;20195;-80
2024/02/24 05:22:50;;;;;;;24.13;15.93;;;7.50;99.90;;;;;;5070155;28;20192;-79
2024/02/24 05:25:38;;;;;;;25.23;15.83;;;7.60;99.90;;;;;;5070479;28;20282;-79
2024/02/24 05:28:25;;;;;;;24.33;15.47;;;7.60;99.90;;;;;;5056432;28;20215;-79
2024/02/24 05:31:13;;;;;;;23.80;15.10;;;7.60;99.90;;;;;;5072503;28;20192;-79
2024/02/24 05:34:00;;;;;;;24.70;15.40;;;7.60;99.90;;;;;;5070427;28;20200;-79
2024/02/24 05:36:48;;;;;;;23.97;15.73;;;7.60;99.90;;;;;;5071013;28;20697;-80
2024/02/24 05:39:36;;;;;;;23.90;15.10;;;7.50;99.90;;;;;;5071306;28;20640;-79
2024/02/24 05:42:25;;;;;;;27.40;15.87;;;7.50;99.90;;;;;;5070269;28;20649;-80
2024/02/24 05:45:12;;;;;;;23.83;14.87;;;7.50;99.90;;;;;;5070593;28;20776;-80
2024/02/24 05:48:02;;;;;;;22.77;14.47;;;7.50;99.90;;;;;;5070116;28;20263;-80
2024/02/24 05:50:50;;;;;;;22.40;14.70;;;7.50;99.90;;;;;;5070688;28;20275;-80
2024/02/24 05:53:38;;;;;;;23.47;14.27;;;7.50;99.90;;;;;;5069856;28;20600;-80
2024/02/24 05:56:26;;;;;;;22.97;14.40;;;7.40;99.90;;;;;;5070932;28;20300;-80
2024/02/24 05:59:13;;;;;;;23.47;15.10;;;7.40;99.90;;;;;;5070135;28;20644;-80
2024/02/24 06:02:01;;;;;;;22.70;14.90;;;7.50;99.90;;;;;;5070902;28;20216;-80
2024/02/24 06:04:48;;;;;;;22.00;14.23;;;7.50;99.90;;;;;;5071046;28;20197;-80
2024/02/24 06:07:38;;;;;;;23.97;15.00;;;7.50;99.90;;;;;;5070440;28;20199;-80
2024/02/24 06:10:26;;;;;;;20.63;13.10;;;7.60;99.90;;;;;;5069845;28;20204;-80
2024/02/24 06:13:14;;;;;;;20.10;13.67;;;7.60;99.90;;;;;;5070704;28;20200;-80
2024/02/24 06:16:01;;;;;;;22.30;13.67;;;7.60;99.90;;;;;;5070109;28;20193;-80
2024/02/24 06:18:49;;;;;;;20.67;13.17;;;7.60;99.90;;;;;;5070861;28;20194;-81
2024/02/24 06:21:36;;;;;;;20.03;13.23;;;7.60;99.90;;;;;;5073878;28;20243;-81
2024/02/24 06:24:24;;;;;;;20.77;13.03;;;7.60;99.90;;;;;;5073968;28;20652;-81
2024/02/24 06:27:11;;;;;;;22.70;13.63;;;7.60;99.90;;;;;;5073568;28;20197;-81
2024/02/24 06:29:59;;;;;;;18.00;12.67;;;7.60;99.90;;;;;;5059258;28;20220;-82
2024/02/24 06:32:47;;;;;;;19.60;12.60;;;7.60;99.90;;;;;;5073787;28;20222;-81
2024/02/24 06:35:34;;;;;;;23.03;13.07;;;7.70;99.90;;;;;;5073526;28;20231;-82
2024/02/24 06:38:22;;;;;;;17.47;12.13;;;7.70;99.90;;;;;;5074921;28;20248;-80
2024/02/24 06:41:10;;;;;;;20.77;12.20;;;7.80;99.90;;;;;;5073771;28;20201;-83
2024/02/24 06:43:58;;;;;;;22.20;11.73;;;7.80;99.90;;;;;;5059815;28;20595;-79
2024/02/24 06:46:45;;;;;;;21.80;11.70;;;7.80;99.90;;;;;;5075816;28;20211;-79
2024/02/24 06:49:32;;;;;;;18.77;12.53;;;7.80;99.90;;;;;;5074961;28;20466;-79
2024/02/24 06:52:20;;;;;;;19.93;11.90;;;7.80;99.90;;;;;;5074392;28;20713;-80
2024/02/24 06:55:07;;;;;;;19.53;11.70;;;7.80;99.90;;;;;;5060601;28;20204;-80
2024/02/24 06:57:55;;;;;;;17.10;12.10;;;7.90;99.90;;;;;;5074933;28;20218;-79
2024/02/24 07:00:42;;;;;;;16.83;11.07;;;7.90;99.90;;;;;;5072738;28;20192;-79
2024/02/24 07:03:32;;;;;;;18.83;11.57;;;7.90;99.90;;;;;;5073734;28;20198;-79
2024/02/24 07:06:20;;;;;;;16.90;10.47;;;7.90;99.90;;;;;;5072706;28;20195;-77
2024/02/24 07:09:08;;;;;;;17.50;10.33;;;7.90;99.90;;;;;;5074007;28;20284;-77
2024/02/24 07:11:55;;;;;;;15.90;10.03;;;7.90;99.90;;;;;;5072740;28;20188;-78
2024/02/24 07:14:43;;;;;;;17.20;10.43;;;7.90;99.90;;;;;;5073307;28;20675;-78
2024/02/24 07:17:30;;;;;;;16.87;10.40;;;8.00;99.90;;;;;;5072360;28;20206;-78
2024/02/24 07:20:17;;;;;;;16.43;10.47;;;8.00;99.90;;;;;;5074031;28;20636;-78
2024/02/24 07:23:05;;;;;;;18.63;10.17;;;8.10;99.90;;;;;;5073361;28;20204;-78
2024/02/24 07:25:53;;;;;;;14.97;9.90;;;8.10;99.90;;;;;;5074098;28;20189;-78
2024/02/24 07:28:40;;;;;;;15.53;10.10;;;8.20;99.90;;;;;;5058596;28;20224;-78
2024/02/24 07:31:27;;;;;;;15.63;9.00;;;8.30;99.90;;;;;;5072568;28;20240;-79
2024/02/24 07:34:15;;;;;;;16.50;10.20;;;8.30;99.90;;;;;;5072419;28;20561;-79
2024/02/24 07:37:02;;;;;;;14.33;9.53;;;8.20;99.90;;;;;;5072106;28;20543;-79
2024/02/24 07:39:50;;;;;;;17.03;9.70;;;8.30;99.90;;;;;;5058290;28;20274;-79
2024/02/24 07:42:37;;;;;;;14.90;8.97;;;8.30;99.90;;;;;;5073192;28;20197;-79
2024/02/24 07:45:25;;;;;;;15.53;9.53;;;8.30;99.90;;;;;;5072156;28;20190;-78
2024/02/24 07:48:12;;;;;;;16.00;9.67;;;8.30;99.90;;;;;;5072570;28;20623;-78
2024/02/24 07:51:00;;;;;;;14.53;9.60;;;8.40;99.90;;;;;;5072264;28;20652;-78
2024/02/24 07:53:47;;;;;;;14.10;8.90;;;8.40;99.90;;;;;;5072995;28;20197;-79
2024/02/24 07:56:35;;;;;;;13.57;8.80;;;8.40;99.90;;;;;;5058627;28;20259;-78
2024/02/24 07:59:22;;;;;;;13.97;8.83;;;8.50;99.90;;;;;;5073751;28;20596;-78
2024/02/24 08:02:10;;;;;;;14.87;9.07;;;8.50;99.90;;;;;;5071763;28;20288;-78
2024/02/24 08:04:58;;;;;;;17.33;9.57;;;8.50;99.90;;;;;;5057461;28;20197;-78
2024/02/24 08:07:45;;;;;;;14.07;8.77;;;8.50;99.90;;;;;;5072156;28;20197;-77
2024/02/24 08:10:32;;;;;;;15.40;9.00;;;8.60;99.90;;;;;;5073509;28;20309;-77
2024/02/24 08:13:20;;;;;;;13.33;8.33;;;8.60;99.90;;;;;;5072981;28;20195;-78
2024/02/24 08:16:09;;;;;;;16.67;9.03;;;8.60;99.90;;;;;;5072805;28;20247;-79
2024/02/24 08:18:56;;;;;;;12.60;7.90;;;8.70;99.90;;;;;;5071412;28;20189;-79
2024/02/24 08:21:44;;;;;;;14.40;8.93;;;8.80;99.90;;;;;;5044985;28;20201;-78
2024/02/24 08:24:32;;;;;;;14.73;8.73;;;8.80;99.90;;;;;;5072548;28;20201;-78
2024/02/24 08:27:20;;;;;;;12.63;8.10;;;8.80;99.90;;;;;;5071395;28;20196;-78
2024/02/24 08:30:08;;;;;;;12.57;7.70;;;8.90;99.90;;;;;;5056835;28;21063;-78
2024/02/24 08:32:55;;;;;;;15.27;8.40;;;8.90;99.90;;;;;;5071584;28;20218;-78
2024/02/24 08:35:43;;;;;;;11.57;7.73;;;8.90;99.90;;;;;;5071929;28;20229;-77
2024/02/24 08:38:31;;;;;;;13.17;8.23;;;8.90;99.90;;;;;;5072191;28;20673;-78
2024/02/24 08:41:19;;;;;;;12.20;8.03;;;9.00;99.90;;;;;;5071787;28;20216;-77
2024/02/24 08:44:07;;;;;;;15.17;7.80;;;9.00;99.90;;;;;;5070973;28;20247;-79
2024/02/24 08:46:55;;;;;;;16.20;7.80;;;9.00;99.90;;;;;;5056634;28;20753;-77
2024/02/24 08:49:42;;;;;;;13.23;7.97;;;9.10;99.90;;;;;;5057818;28;20229;-74
2024/02/24 08:52:30;;;;;;;11.57;7.33;;;9.20;99.90;;;;;;5071930;28;20204;-77
2024/02/24 08:55:29;;;;;;;10.97;7.77;;;9.20;99.90;;;;;;5070914;28;20716;-78
2024/02/24 08:58:17;;;;;;;13.57;7.63;;;9.20;99.90;;;;;;5057141;28;20673;-78
2024/02/24 09:01:06;;;;;;;12.50;7.57;;;9.30;99.90;;;;;;5072803;28;20198;-80
2024/02/24 09:03:55;;;;;;;11.43;7.67;;;9.30;99.90;;;;;;5070996;28;20198;-79
2024/02/24 09:06:43;;;;;;;11.77;7.97;;;9.40;99.90;;;;;;5070623;28;20193;-80
2024/02/24 09:09:30;;;;;;;12.60;8.03;;;9.40;99.90;;;;;;5071243;28;20267;-80
2024/02/24 09:12:18;;;;;;;10.50;7.47;;;9.50;99.90;;;;;;5070052;28;20252;-80
2024/02/24 09:15:06;;;;;;;11.43;7.70;;;9.50;99.90;;;;;;5070509;28;20202;-80
2024/02/24 09:17:54;;;;;;;13.23;7.93;;;9.60;99.90;;;;;;5056402;28;20683;-79
2024/02/24 09:20:43;;;;;;;11.13;7.37;;;9.70;99.90;;;;;;5057062;28;20201;-80
2024/02/24 09:23:31;;;;;;;12.00;7.03;;;9.80;99.90;;;;;;5071850;28;20768;-79
2024/02/24 09:26:18;;;;;;;12.27;7.40;;;9.80;99.90;;;;;;5071369;28;20210;-79
2024/02/24 09:29:05;;;;;;;13.70;7.57;;;9.90;99.90;;;;;;5069935;28;20358;-78
2024/02/24 09:31:53;;;;;;;13.93;7.17;;;10.00;99.90;;;;;;5070989;28;20228;-80
2024/02/24 09:34:40;;;;;;;11.80;7.33;;;10.10;99.90;;;;;;5070999;28;20285;-80
2024/02/24 09:37:28;;;;;;;11.50;7.57;;;10.20;99.90;;;;;;5071123;28;20201;-80
2024/02/24 09:40:16;;;;;;;11.50;7.27;;;10.30;99.90;;;;;;5070486;28;20592;-78
2024/02/24 09:43:04;;;;;;;12.83;7.23;;;10.40;99.90;;;;;;5070437;28;20192;-79
2024/02/24 09:45:53;;;;;;;13.53;7.27;;;10.50;99.90;;;;;;5070228;28;20274;-79
2024/02/24 09:48:42;;;;;;;11.87;7.40;;;10.60;99.90;;;;;;5071112;28;20195;-80
2024/02/24 09:51:29;;;;;;;11.30;7.30;;;10.60;99.90;;;;;;5070171;28;20189;-79
2024/02/24 09:54:17;;;;;;;12.70;7.43;;;10.60;99.90;;;;;;5055556;28;20194;-79
2024/02/24 09:57:04;;;;;;;10.37;6.80;;;10.70;99.90;;;;;;5070529;28;20577;-79
2024/02/24 09:59:53;;;;;;;12.00;7.03;;;10.70;99.90;;;;;;5056030;28;20762;-80
2024/02/24 10:02:41;;;;;;;10.10;6.40;;;10.70;99.90;;;;;;5070039;28;20228;-80
2024/02/24 10:05:28;;;;;;;10.73;6.73;;;10.80;99.90;;;;;;5055562;28;20193;-79
2024/02/24 10:08:18;;;;;;;13.07;6.73;;;10.90;99.90;;;;;;5070674;28;20211;-80
2024/02/24 10:11:06;;;;;;;10.03;6.73;;;11.00;99.90;;;;;;5069756;28;20186;-80
2024/02/24 10:13:53;;;;;;;8.70;6.40;;;11.40;99.90;;;;;;5070662;28;20280;-81
2024/02/24 10:16:41;;;;;;;11.03;6.50;;;11.70;99.90;;;;;;5070767;28;20225;-80
2024/02/24 10:19:31;;;;;;;9.47;6.07;;;11.70;99.90;;;;;;5070033;28;20296;-80
2024/02/24 10:22:19;;;;;;;9.93;5.80;;;11.40;99.90;;;;;;5071037;28;20205;-80
2024/02/24 10:25:07;;;;;;;8.70;5.50;;;11.30;99.90;;;;;;5056282;28;20204;-80
2024/02/24 10:27:54;;;;;;;7.70;5.07;;;11.30;99.90;;;;;;5055393;28;20638;-79
2024/02/24 10:30:41;;;;;;;6.33;3.87;;;11.30;99.90;;;;;;5070413;28;20569;-79
2024/02/24 10:33:31;;;;;;;3.60;3.00;;;11.30;99.90;;;;;;5071108;28;20224;-79
2024/02/24 10:36:27;;;;;;;3.73;2.90;;;11.10;99.90;;;;;;5055950;28;20598;-79
2024/02/24 10:39:16;;;;;;;4.00;2.80;;;11.10;99.90;;;;;;5069352;28;20218;-79
2024/02/24 10:42:06;;;;;;;4.27;3.10;;;11.10;99.90;;;;;;5054485;28;20203;-79
2024/02/24 10:44:55;;;;;;;4.37;3.00;;;11.50;99.90;;;;;;5069810;28;20566;-80
2024/02/24 10:47:42;;;;;;;3.83;2.77;;;11.80;99.90;;;;;;5054567;28;20214;-79
2024/02/24 10:50:29;;;;;;;5.37;3.20;;;11.90;99.90;;;;;;5069449;28;20578;-80
2024/02/24 10:53:21;;;;;;;4.27;3.17;;;11.70;99.90;;;;;;5070555;28;20228;-79
2024/02/24 10:56:10;;;;;;;6.43;3.50;;;11.50;99.90;;;;;;5069377;28;20197;-80
2024/02/24 10:59:08;;;;;;;4.57;3.27;;;11.60;99.90;;;;;;5055340;28;20202;-79
2024/02/24 11:02:03;;;;;;;4.57;3.20;;;11.50;99.90;;;;;;5055443;28;20297;-79
2024/02/24 11:04:54;;;;;;;4.50;3.07;;;11.30;99.90;;;;;;5069882;28;20198;-79
2024/02/24 11:07:41;;;;;;;5.73;3.20;;;11.20;99.90;;;;;;5072109;28;20249;-78
2024/02/24 11:10:33;;;;;;;3.30;2.60;;;11.20;99.90;;;;;;5072952;28;20222;-79
2024/02/24 11:13:22;;;;;;;3.63;2.40;;;11.20;99.90;;;;;;5073034;28;20213;-80
2024/02/24 11:16:10;;;;;;;2.50;1.70;;;11.10;99.90;;;;;;5073801;28;20332;-80
2024/02/24 11:18:57;;;;;;;2.70;1.80;;;11.10;99.90;;;;;;5072992;28;20228;-79
2024/02/24 11:22:01;;;;;;;1.97;1.50;;;11.10;99.90;;;;;;5073181;28;20223;-79
2024/02/24 11:25:02;;;;;;;1.80;1.30;;;11.10;99.90;;;;;;5073283;28;20669;-80
2024/02/24 11:27:56;;;;;;;2.50;1.37;;;11.10;99.90;;;;;;5073665;28;20194;-79
2024/02/24 11:30:44;;;;;;;1.67;1.23;;;11.10;99.90;;;;;;5073997;28;20673;-78
2024/02/24 11:33:42;;;;;;;1.90;1.23;;;11.40;99.90;;;;;;5059841;28;20226;-78
2024/02/24 11:36:32;;;;;;;1.80;1.27;;;12.20;99.90;;;;;;5058519;28;20233;-79
2024/02/24 11:39:20;;;;;;;2.60;1.30;;;12.50;99.90;;;;;;5058520;28;20190;-80
2024/02/24 11:42:11;;;;;;;1.90;1.30;;;12.20;99.90;;;;;;5072165;28;20195;-79
2024/02/24 11:44:59;;;;;;;3.13;1.33;;;11.80;99.90;;;;;;5044817;28;20764;-79
2024/02/24 11:47:47;;;;;;;3.47;1.50;;;11.60;99.90;;;;;;5072015;28;20217;-82
2024/02/24 11:50:35;;;;;;;2.43;1.70;;;11.20;99.90;;;;;;5060247;28;20591;-87
2024/02/24 11:53:23;;;;;;;3.43;1.90;;;11.10;99.90;;;;;;5072722;28;20570;-83
2024/02/24 11:56:11;;;;;;;2.77;1.73;;;10.90;99.90;;;;;;5058375;28;20661;-84
2024/02/24 11:58:58;;;;;;;2.53;1.87;;;10.60;99.90;;;;;;5072395;28;20196;-84
2024/02/24 12:01:47;;;;;;;2.63;2.03;;;10.40;99.90;;;;;;5073146;28;20217;-84
2024/02/24 12:04:34;;;;;;;3.37;2.27;;;10.20;99.90;;;;;;5057635;28;20197;-86
2024/02/24 12:07:23;;;;;;;4.20;2.30;;;10.00;99.90;;;;;;5072911;28;20197;-86
2024/02/24 12:10:11;;;;;;;3.13;2.60;;;9.90;99.90;;;;;;5072268;28;20308;-88
2024/02/24 12:12:59;;;;;;;4.77;2.53;;;9.80;99.90;;;;;;5071708;28;20708;-83
2024/02/24 12:15:46;;;;;;;2.97;2.67;;;9.60;99.90;;;;;;5072420;28;20201;-83
2024/02/24 12:18:39;;;;;;;3.37;2.40;;;9.50;99.90;;;;;;5058482;28;20206;-82
2024/02/24 12:21:27;;;;;;;2.90;2.50;;;9.60;99.90;;;;;;5072225;28;20193;-83
2024/02/24 12:24:28;;;;;;;4.47;2.20;;;9.90;99.90;;;;;;5072148;28;20297;-83
2024/02/24 12:27:16;;;;;;;2.67;2.30;;;10.10;99.90;;;;;;5072633;28;20199;-85
2024/02/24 12:30:04;;;;;;;2.60;2.40;;;10.80;99.90;;;;;;5072435;28;20213;-86
2024/02/24 12:32:53;;;;;;;3.60;2.07;;;10.80;99.90;;;;;;5071318;28;20229;-85
2024/02/24 12:35:41;;;;;;;3.63;2.43;;;11.00;99.90;;;;;;5071286;28;20292;-84
2024/02/24 12:38:29;;;;;;;3.03;2.23;;;10.70;99.90;;;;;;5071757;28;20198;-85
2024/02/24 12:41:18;;;;;;;3.27;2.47;;;10.30;99.90;;;;;;5073115;28;20285;-84
2024/02/24 12:44:08;;;;;;;4.10;2.27;;;10.20;99.90;;;;;;5072772;28;20273;-87
2024/02/24 12:46:56;;;;;;;3.40;2.40;;;10.20;99.90;;;;;;5071922;28;20686;-85
2024/02/24 12:49:48;;;;;;;3.30;2.50;;;10.20;99.90;;;;;;5058286;28;20217;-87
2024/02/24 12:52:35;;;;;;;4.20;2.53;;;9.70;99.90;;;;;;5072216;28;20258;-85
2024/02/24 12:55:22;;;;;;;3.57;2.30;;;9.90;99.90;;;;;;5070976;28;20273;-79
2024/02/24 12:58:11;;;;;;;2.97;2.60;;;9.80;99.90;;;;;;5072776;28;20227;-87
2024/02/24 13:00:59;;;;;;;2.97;2.17;;;9.90;99.90;;;;;;5056927;28;20558;-87
2024/02/24 13:03:48;;;;;;;3.13;2.27;;;9.80;99.90;;;;;;5057908;28;20280;-88
2024/02/24 13:06:36;;;;;;;3.87;2.37;;;9.70;99.90;;;;;;5056599;28;20192;-87
2024/02/24 13:09:24;;;;;;;4.47;2.40;;;9.60;99.90;;;;;;5056690;28;20194;-86
2024/02/24 13:12:13;;;;;;;3.47;2.50;;;9.50;99.90;;;;;;5072005;28;20695;-88
2024/02/24 13:15:01;;;;;;;3.60;2.33;;;9.30;99.90;;;;;;5071212;28;20219;-87
2024/02/24 13:17:49;;;;;;;3.73;2.73;;;9.20;99.90;;;;;;5043473;28;20221;-89
2024/02/24 13:20:37;;;;;;;3.70;2.50;;;9.20;99.90;;;;;;5073431;28;20228;-89
2024/02/24 13:23:26;;;;;;;3.57;2.77;;;9.30;99.90;;;;;;5059141;28;20630;-91
2024/02/24 13:26:14;;;;;;;3.77;3.03;;;9.10;99.90;;;;;;5058684;28;20208;-88
2024/02/24 13:29:02;;;;;;;4.23;2.73;;;9.20;99.90;;;;;;5082813;28;20288;-86
2024/02/24 13:31:49;;;;;;;4.33;3.00;;;9.20;99.90;;;;;;5059531;28;20225;-90
2024/02/24 13:34:37;;;;;;;3.30;2.73;;;9.20;99.90;;;;;;5043564;28;20196;-87
2024/02/24 13:37:26;;;;;;;4.30;3.00;;;9.30;99.90;;;;;;5060980;28;20204;-91
2024/02/24 13:40:14;;;;;;;3.83;2.90;;;9.10;99.90;;;;;;5075436;28;20201;-90
2024/02/24 13:43:02;;;;;;;3.57;2.67;;;8.90;99.90;;;;;;5061486;28;20574;-89
2024/02/24 13:45:54;;;;;;;3.80;2.97;;;8.80;99.90;;;;;;5060191;28;20197;-91
2024/02/24 13:48:41;;;;;;;3.70;2.70;;;8.80;99.90;;;;;;5055653;28;20774;-88
2024/02/24 13:51:31;;;;;;;4.00;2.83;;;8.90;99.90;;;;;;5071084;28;20217;-88
2024/02/24 13:54:18;;;;;;;3.70;2.83;;;8.90;99.90;;;;;;5071009;28;20195;-79
2024/02/24 13:57:06;;;;;;;4.30;2.77;;;8.90;99.90;;;;;;5070489;28;20201;-84
2024/02/24 13:59:55;;;;;;;3.50;3.00;;;9.00;99.90;;;;;;5070961;28;20641;-82
2024/02/24 14:02:43;;;;;;;3.10;2.73;;;9.00;99.90;;;;;;5069910;28;20253;-83
2024/02/24 14:05:32;;;;;;;5.57;3.10;;;8.90;99.90;;;;;;5042665;28;20198;-83
2024/02/24 14:08:21;;;;;;;4.00;3.30;;;8.90;99.90;;;;;;5055693;28;20664;-81
2024/02/24 14:11:08;;;;;;;4.17;3.33;;;8.70;99.90;;;;;;5069860;28;20224;-83
2024/02/24 14:13:55;;;;;;;3.90;3.07;;;8.70;99.90;;;;;;5069642;28;20200;-82
2024/02/24 14:16:45;;;;;;;4.43;3.27;;;8.80;99.90;;;;;;5070266;28;20209;-86
2024/02/24 14:19:33;;;;;;;3.53;3.20;;;8.70;99.90;;;;;;5069387;28;20192;-86
2024/02/24 14:22:20;;;;;;;3.93;3.10;;;8.70;99.90;;;;;;5055771;28;20653;-87
2024/02/24 14:25:08;;;;;;;3.73;3.03;;;8.60;99.90;;;;;;5069709;28;20193;-87
2024/02/24 14:27:55;;;;;;;3.23;2.93;;;8.80;99.90;;;;;;5055145;28;20270;-88
2024/02/24 14:30:46;;;;;;;4.10;2.80;;;8.80;99.90;;;;;;5071754;28;20217;-87